Weather at Malinda Estate Airstrip

Public forecast

Using degrees Celsius for public forecast. Weather courtesy of forecast.io.

Closest aviation weather report (METAR) to Malinda Estate Airstrip

Report is more than 6 hours old.

Closest report is Jomo Kenyatta International Airport, 14.2 nm (26.3 km) NW. Retrieved 2022/08/11 17:30 UTC (15 hours ago):

HKJK 111730Z 07011KT 9999 BKN018 18/12 Q1022 NOSIG

Closest aviation forecast (TAF) to Malinda Estate Airstrip

Forecast is more than 6 hours old.

Closest forecast is Jomo Kenyatta International Airport, 14.2 nm (26.3 km) NW. Retrieved 2022-08-12 00:57 UTC (8 hours ago):

TAF HKJK 112300Z 1200/1306 18005KT 9999 FEW008 BKN015 BECMG 1208/1211 10010KT BKN024 BECMG 1300/1304 18005KT FEW008 BKN015